sensor_id;sensor_type;location;lat;lon;timestamp;pressure;altitude;pressure_sealevel;temperature;humidity
56514;BME280;62152;52.078;8.414;2023-01-27T00:01:00;100867.53;;;16.53;58.02
56514;BME280;62152;52.078;8.414;2023-01-27T00:05:00;100865.59;;;16.53;58.00
56514;BME280;62152;52.078;8.414;2023-01-27T00:09:01;100864.00;;;16.52;57.87
56514;BME280;62152;52.078;8.414;2023-01-27T00:13:03;100867.06;;;16.51;57.83
56514;BME280;62152;52.078;8.414;2023-01-27T00:17:04;100874.13;;;16.52;57.71
56514;BME280;62152;52.078;8.414;2023-01-27T00:21:05;100870.59;;;16.51;57.98
56514;BME280;62152;52.078;8.414;2023-01-27T00:25:07;100862.75;;;16.50;57.95
56514;BME280;62152;52.078;8.414;2023-01-27T00:29:09;100869.81;;;16.51;58.11
56514;BME280;62152;52.078;8.414;2023-01-27T00:33:10;100868.22;;;16.50;58.13
56514;BME280;62152;52.078;8.414;2023-01-27T00:37:12;100868.22;;;16.50;57.85
56514;BME280;62152;52.078;8.414;2023-01-27T00:41:13;100858.41;;;16.49;57.98
56514;BME280;62152;52.078;8.414;2023-01-27T00:45:15;100858.41;;;16.49;57.99
56514;BME280;62152;52.078;8.414;2023-01-27T00:49:16;100852.13;;;16.48;57.97
56514;BME280;62152;52.078;8.414;2023-01-27T00:53:17;100851.34;;;16.48;57.69
56514;BME280;62152;52.078;8.414;2023-01-27T00:57:18;100848.91;;;16.46;57.63
56514;BME280;62152;52.078;8.414;2023-01-27T01:01:21;100857.13;;;16.46;57.60
56514;BME280;62152;52.078;8.414;2023-01-27T01:05:21;100864.88;;;16.44;57.55
56514;BME280;62152;52.078;8.414;2023-01-27T01:09:22;100856.00;;;16.47;57.47
56514;BME280;62152;52.078;8.414;2023-01-27T01:13:24;100861.00;;;16.45;57.77
56514;BME280;62152;52.078;8.414;2023-01-27T01:17:26;100858.25;;;16.45;57.84
56514;BME280;62152;52.078;8.414;2023-01-27T01:21:27;100855.88;;;16.44;57.73
56514;BME280;62152;52.078;8.414;2023-01-27T01:25:28;100866.81;;;16.44;57.86
56514;BME280;62152;52.078;8.414;2023-01-27T01:29:30;100871.50;;;16.43;57.88
56514;BME280;62152;52.078;8.414;2023-01-27T01:33:32;100876.19;;;16.42;57.43
56514;BME280;62152;52.078;8.414;2023-01-27T01:37:33;100871.50;;;16.43;57.53
56514;BME280;62152;52.078;8.414;2023-01-27T01:41:34;100875.38;;;16.42;57.71
56514;BME280;62152;52.078;8.414;2023-01-27T01:45:53;100868.31;;;16.41;57.68
56514;BME280;62152;52.078;8.414;2023-01-27T01:49:56;100874.59;;;16.41;57.64
56514;BME280;62152;52.078;8.414;2023-01-27T01:54:01;100862.03;;;16.40;57.69
56514;BME280;62152;52.078;8.414;2023-01-27T01:58:07;100864.78;;;16.40;57.48
56514;BME280;62152;52.078;8.414;2023-01-27T02:02:13;100862.03;;;16.40;57.76
56514;BME280;62152;52.078;8.414;2023-01-27T02:06:19;100856.56;;;16.40;57.54
56514;BME280;62152;52.078;8.414;2023-01-27T02:10:20;100864.78;;;16.40;57.67
56514;BME280;62152;52.078;8.414;2023-01-27T02:14:21;100863.16;;;16.39;57.51
56514;BME280;62152;52.078;8.414;2023-01-27T02:18:22;100865.88;;;16.39;57.26
56514;BME280;62152;52.078;8.414;2023-01-27T02:22:35;100863.50;;;16.38;57.67
56514;BME280;62152;52.078;8.414;2023-01-27T02:26:45;100859.63;;;16.39;57.34
56514;BME280;62152;52.078;8.414;2023-01-27T02:30:46;100850.25;;;16.40;57.50
56514;BME280;62152;52.078;8.414;2023-01-27T02:34:47;100861.22;;;16.40;57.32
56514;BME280;62152;52.078;8.414;2023-01-27T02:38:52;100857.22;;;16.37;57.60
56514;BME280;62152;52.078;8.414;2023-01-27T02:42:57;100855.28;;;16.38;57.29
56514;BME280;62152;52.078;8.414;2023-01-27T02:46:59;100862.69;;;16.37;57.03
56514;BME280;62152;52.078;8.414;2023-01-27T02:51:00;100859.16;;;16.37;57.40
56514;BME280;62152;52.078;8.414;2023-01-27T02:55:04;100861.09;;;16.36;57.71
56514;BME280;62152;52.078;8.414;2023-01-27T02:59:07;100863.50;;;16.38;57.54
56514;BME280;62152;52.078;8.414;2023-01-27T03:03:12;100874.00;;;16.36;57.24
56514;BME280;62152;52.078;8.414;2023-01-27T03:07:14;100868.53;;;16.36;57.36
56514;BME280;62152;52.078;8.414;2023-01-27T03:11:15;100869.66;;;16.35;57.49
56514;BME280;62152;52.078;8.414;2023-01-27T03:15:18;100875.94;;;16.35;57.67
56514;BME280;62152;52.078;8.414;2023-01-27T03:19:19;100883.00;;;16.36;57.16
56514;BME280;62152;52.078;8.414;2023-01-27T03:23:20;100884.94;;;16.36;57.48
56514;BME280;62152;52.078;8.414;2023-01-27T03:27:25;100880.63;;;16.35;57.15
56514;BME280;62152;52.078;8.414;2023-01-27T03:31:53;100882.22;;;16.36;57.07
56514;BME280;62152;52.078;8.414;2023-01-27T03:35:54;100882.56;;;16.34;57.31
56514;BME280;62152;52.078;8.414;2023-01-27T03:39:56;100873.53;;;16.34;57.10
56514;BME280;62152;52.078;8.414;2023-01-27T03:43:57;100879.00;;;16.34;57.14
56514;BME280;62152;52.078;8.414;2023-01-27T03:47:59;100873.53;;;16.34;57.22
56514;BME280;62152;52.078;8.414;2023-01-27T03:52:00;100886.09;;;16.35;57.17
56514;BME280;62152;52.078;8.414;2023-01-27T03:56:01;100894.63;;;16.33;57.29
56514;BME280;62152;52.078;8.414;2023-01-27T04:00:03;100897.38;;;16.33;57.17
56514;BME280;62152;52.078;8.414;2023-01-27T04:04:15;100889.97;;;16.34;57.22
56514;BME280;62152;52.078;8.414;2023-01-27T04:08:15;100890.75;;;16.34;57.12
56514;BME280;62152;52.078;8.414;2023-01-27T04:12:16;100889.97;;;16.34;57.35
56514;BME280;62152;52.078;8.414;2023-01-27T04:16:17;100893.81;;;16.33;57.33
56514;BME280;62152;52.078;8.414;2023-01-27T04:20:20;100892.69;;;16.34;57.25
56514;BME280;62152;52.078;8.414;2023-01-27T04:24:21;100901.72;;;16.34;57.66
56514;BME280;62152;52.078;8.414;2023-01-27T04:28:22;100898.19;;;16.34;57.48
56514;BME280;62152;52.078;8.414;2023-01-27T04:32:23;100899.28;;;16.33;57.72
56514;BME280;62152;52.078;8.414;2023-01-27T04:36:25;100893.34;;;16.31;57.44
56514;BME280;62152;52.078;8.414;2023-01-27T04:40:26;100899.97;;;16.30;57.42
56514;BME280;62152;52.078;8.414;2023-01-27T04:44:26;100901.56;;;16.31;56.96
56514;BME280;62152;52.078;8.414;2023-01-27T04:48:27;100909.78;;;16.31;56.97
56514;BME280;62152;52.078;8.414;2023-01-27T04:52:29;100910.94;;;16.30;56.90
56514;BME280;62152;52.078;8.414;2023-01-27T04:56:32;100918.06;;;15.51;54.97
56514;BME280;62152;52.078;8.414;2023-01-27T05:00:34;100928.44;;;14.52;55.53
56514;BME280;62152;52.078;8.414;2023-01-27T05:04:35;100923.41;;;14.71;54.47
56514;BME280;62152;52.078;8.414;2023-01-27T05:08:37;100931.47;;;14.59;57.31
56514;BME280;62152;52.078;8.414;2023-01-27T05:12:38;100938.50;;;15.53;55.11
56514;BME280;62152;52.078;8.414;2023-01-27T05:16:39;100940.31;;;15.79;54.58
56514;BME280;62152;52.078;8.414;2023-01-27T05:20:39;100933.66;;;15.89;54.82
56514;BME280;62152;52.078;8.414;2023-01-27T05:24:42;100933.78;;;15.92;54.83
56514;BME280;62152;52.078;8.414;2023-01-27T05:28:44;100931.97;;;15.96;54.52
56514;BME280;62152;52.078;8.414;2023-01-27T05:32:46;100932.44;;;15.98;54.90
56514;BME280;62152;52.078;8.414;2023-01-27T05:36:46;100936.78;;;15.99;55.25
56514;BME280;62152;52.078;8.414;2023-01-27T05:40:49;100935.66;;;16.00;55.16
56514;BME280;62152;52.078;8.414;2023-01-27T05:44:54;100948.19;;;16.01;55.04
56514;BME280;62152;52.078;8.414;2023-01-27T05:48:58;100940.44;;;16.03;54.91
56514;BME280;62152;52.078;8.414;2023-01-27T05:53:00;100943.97;;;16.04;55.11
56514;BME280;62152;52.078;8.414;2023-01-27T05:57:03;100953.00;;;16.04;55.11
56514;BME280;62152;52.078;8.414;2023-01-27T06:01:08;100961.69;;;16.06;55.04
56514;BME280;62152;52.078;8.414;2023-01-27T06:05:11;100955.41;;;16.06;55.01
56514;BME280;62152;52.078;8.414;2023-01-27T06:09:12;100963.63;;;16.06;55.52
56514;BME280;62152;52.078;8.414;2023-01-27T06:13:14;100962.00;;;16.05;55.59
56514;BME280;62152;52.078;8.414;2023-01-27T06:17:15;100970.69;;;16.07;55.33
56514;BME280;62152;52.078;8.414;2023-01-27T06:21:17;100972.63;;;16.06;55.27
56514;BME280;62152;52.078;8.414;2023-01-27T06:25:18;100978.09;;;16.06;55.23
56514;BME280;62152;52.078;8.414;2023-01-27T06:29:20;100973.09;;;16.08;55.58
56514;BME280;62152;52.078;8.414;2023-01-27T06:33:21;100980.50;;;16.08;55.31
56514;BME280;62152;52.078;8.414;2023-01-27T06:37:22;100986.78;;;16.08;55.60
56514;BME280;62152;52.078;8.414;2023-01-27T06:41:22;100981.31;;;16.08;55.59
56514;BME280;62152;52.078;8.414;2023-01-27T06:45:25;100988.38;;;16.09;55.42
56514;BME280;62152;52.078;8.414;2023-01-27T06:49:26;100985.63;;;16.09;55.60
56514;BME280;62152;52.078;8.414;2023-01-27T06:53:27;100993.50;;;16.11;55.69
56514;BME280;62152;52.078;8.414;2023-01-27T06:57:28;100990.78;;;16.11;55.58
56514;BME280;62152;52.078;8.414;2023-01-27T07:01:30;100991.09;;;16.09;55.78
56514;BME280;62152;52.078;8.414;2023-01-27T07:05:32;101002.53;;;16.11;55.54
56514;BME280;62152;52.078;8.414;2023-01-27T07:09:33;100998.19;;;16.10;55.75
56514;BME280;62152;52.078;8.414;2023-01-27T07:13:34;101004.44;;;16.11;55.91
56514;BME280;62152;52.078;8.414;2023-01-27T07:17:36;101009.13;;;16.10;55.93
56514;BME280;62152;52.078;8.414;2023-01-27T07:21:37;101020.88;;;16.11;55.90
56514;BME280;62152;52.078;8.414;2023-01-27T07:25:38;101011.88;;;16.10;56.08
56514;BME280;62152;52.078;8.414;2023-01-27T07:29:39;101026.69;;;16.09;55.74
56514;BME280;62152;52.078;8.414;2023-01-27T07:33:41;101025.53;;;16.10;56.10
56514;BME280;62152;52.078;8.414;2023-01-27T07:37:42;101029.09;;;16.11;55.90
56514;BME280;62152;52.078;8.414;2023-01-27T07:41:43;101029.09;;;16.11;55.91
56514;BME280;62152;52.078;8.414;2023-01-27T07:45:52;101028.28;;;16.10;56.16
56514;BME280;62152;52.078;8.414;2023-01-27T07:49:55;101035.34;;;16.11;56.39
56514;BME280;62152;52.078;8.414;2023-01-27T07:53:56;101036.94;;;16.12;56.08
56514;BME280;62152;52.078;8.414;2023-01-27T07:57:56;101051.78;;;16.11;56.21
56514;BME280;62152;52.078;8.414;2023-01-27T08:01:57;101049.84;;;16.12;56.07
56514;BME280;62152;52.078;8.414;2023-01-27T08:06:03;101058.06;;;16.12;56.00
56514;BME280;62152;52.078;8.414;2023-01-27T08:10:04;101056.78;;;16.09;56.00
56514;BME280;62152;52.078;8.414;2023-01-27T08:14:05;101062.72;;;16.11;55.98
56514;BME280;62152;52.078;8.414;2023-01-27T08:18:06;101073.66;;;16.11;56.04
56514;BME280;62152;52.078;8.414;2023-01-27T08:22:10;101072.88;;;16.11;56.30
56514;BME280;62152;52.078;8.414;2023-01-27T08:26:11;101067.41;;;16.11;55.76
56514;BME280;62152;52.078;8.414;2023-01-27T08:30:12;101072.06;;;16.10;56.41
56514;BME280;62152;52.078;8.414;2023-01-27T08:34:13;101072.06;;;16.10;55.86
56514;BME280;62152;52.078;8.414;2023-01-27T08:38:17;101073.66;;;16.11;56.29
56514;BME280;62152;52.078;8.414;2023-01-27T08:42:18;101081.88;;;16.11;56.06
56514;BME280;62152;52.078;8.414;2023-01-27T08:46:19;101089.28;;;16.11;56.22
56514;BME280;62152;52.078;8.414;2023-01-27T08:50:20;101099.44;;;16.10;56.26
56514;BME280;62152;52.078;8.414;2023-01-27T08:54:22;101105.38;;;16.12;56.09
56514;BME280;62152;52.078;8.414;2023-01-27T08:58:23;101107.66;;;16.10;56.31
56514;BME280;62152;52.078;8.414;2023-01-27T09:02:24;101115.84;;;16.10;56.35
56514;BME280;62152;52.078;8.414;2023-01-27T09:06:25;101117.47;;;16.11;56.27
56514;BME280;62152;52.078;8.414;2023-01-27T09:10:27;101121.78;;;16.12;55.93
56514;BME280;62152;52.078;8.414;2023-01-27T09:14:28;101126.16;;;16.13;55.83
56514;BME280;62152;52.078;8.414;2023-01-27T09:18:29;101140.16;;;16.12;56.03
56514;BME280;62152;52.078;8.414;2023-01-27T09:22:30;101142.88;;;16.12;55.98
56514;BME280;62152;52.078;8.414;2023-01-27T09:26:33;101141.78;;;16.13;56.23
56514;BME280;62152;52.078;8.414;2023-01-27T09:30:34;101142.09;;;16.11;55.95
56514;BME280;62152;52.078;8.414;2023-01-27T09:34:34;101139.34;;;16.11;56.00
56514;BME280;62152;52.078;8.414;2023-01-27T09:38:39;101145.63;;;16.12;56.33
56514;BME280;62152;52.078;8.414;2023-01-27T09:43:04;101152.72;;;16.13;56.02
56514;BME280;62152;52.078;8.414;2023-01-27T09:47:31;101149.16;;;16.12;56.24
56514;BME280;62152;52.078;8.414;2023-01-27T09:51:54;101146.44;;;16.12;56.20
56514;BME280;62152;52.078;8.414;2023-01-27T09:56:14;101153.53;;;16.13;56.42
56514;BME280;62152;52.078;8.414;2023-01-27T10:00:36;101150.78;;;16.13;56.12
56514;BME280;62152;52.078;8.414;2023-01-27T10:05:06;101149.66;;;16.14;55.98
56514;BME280;62152;52.078;8.414;2023-01-27T10:09:39;101155.13;;;16.14;55.96
56514;BME280;62152;52.078;8.414;2023-01-27T10:14:08;101146.13;;;16.14;55.97
56514;BME280;62152;52.078;8.414;2023-01-27T10:18:34;101140.31;;;16.16;56.20
56514;BME280;62152;52.078;8.414;2023-01-27T10:22:53;101146.13;;;16.14;56.26
56514;BME280;62152;52.078;8.414;2023-01-27T10:27:13;101137.91;;;16.14;56.29
56514;BME280;62152;52.078;8.414;2023-01-27T10:31:22;101140.94;;;16.12;56.17
56514;BME280;62152;52.078;8.414;2023-01-27T10:35:32;101146.91;;;16.14;56.46
56514;BME280;62152;52.078;8.414;2023-01-27T10:39:51;101147.25;;;16.13;56.43
56514;BME280;62152;52.078;8.414;2023-01-27T10:44:14;101157.88;;;16.14;56.21
56514;BME280;62152;52.078;8.414;2023-01-27T10:48:35;101162.22;;;16.16;56.30
56514;BME280;62152;52.078;8.414;2023-01-27T10:52:46;101169.16;;;16.13;56.33
56514;BME280;62152;52.078;8.414;2023-01-27T10:56:58;101165.28;;;16.14;56.37
56514;BME280;62152;52.078;8.414;2023-01-27T11:01:05;101160.94;;;16.13;56.46
56514;BME280;62152;52.078;8.414;2023-01-27T11:05:17;101156.28;;;16.13;56.52
56514;BME280;62152;52.078;8.414;2023-01-27T11:09:29;101149.16;;;16.12;56.32
56514;BME280;62152;52.078;8.414;2023-01-27T11:13:32;101151.91;;;16.12;56.37
56514;BME280;62152;52.078;8.414;2023-01-27T11:17:37;101150.00;;;16.13;56.59
56514;BME280;62152;52.078;8.414;2023-01-27T11:21:44;101154.63;;;16.12;56.06
56514;BME280;62152;52.078;8.414;2023-01-27T11:25:52;101152.72;;;16.13;56.45
56514;BME280;62152;52.078;8.414;2023-01-27T11:30:02;101149.16;;;16.12;56.36
56514;BME280;62152;52.078;8.414;2023-01-27T11:34:17;101150.78;;;16.13;56.13
56514;BME280;62152;52.078;8.414;2023-01-27T11:38:24;101148.84;;;16.14;56.11
56514;BME280;62152;52.078;8.414;2023-01-27T11:42:30;101145.31;;;16.13;56.59
56514;BME280;62152;52.078;8.414;2023-01-27T11:46:34;101143.69;;;16.12;56.23
56514;BME280;62152;52.078;8.414;2023-01-27T11:50:35;101137.91;;;16.14;56.12
56514;BME280;62152;52.078;8.414;2023-01-27T11:54:41;101141.78;;;16.13;56.50
56514;BME280;62152;52.078;8.414;2023-01-27T11:58:52;101136.31;;;16.13;56.27
56514;BME280;62152;52.078;8.414;2023-01-27T12:03:09;101141.78;;;16.13;56.31
56514;BME280;62152;52.078;8.414;2023-01-27T12:07:24;101139.50;;;16.15;56.44
56514;BME280;62152;52.078;8.414;2023-01-27T12:11:34;101138.72;;;16.14;56.26
56514;BME280;62152;52.078;8.414;2023-01-27T12:15:46;101133.22;;;16.14;56.20
56514;BME280;62152;52.078;8.414;2023-01-27T12:19:55;101134.38;;;16.13;56.22
56514;BME280;62152;52.078;8.414;2023-01-27T12:24:01;101131.63;;;16.13;56.28
56514;BME280;62152;52.078;8.414;2023-01-27T12:28:03;101130.84;;;16.13;56.02
56514;BME280;62152;52.078;8.414;2023-01-27T12:32:14;101132.75;;;16.12;56.15
56514;BME280;62152;52.078;8.414;2023-01-27T12:36:20;101114.41;;;16.13;56.30
56514;BME280;62152;52.078;8.414;2023-01-27T12:40:23;101124.22;;;16.14;56.62
56514;BME280;62152;52.078;8.414;2023-01-27T12:44:39;101115.69;;;16.16;56.10
56514;BME280;62152;52.078;8.414;2023-01-27T12:48:47;101120.34;;;16.15;56.29
56514;BME280;62152;52.078;8.414;2023-01-27T12:53:08;101116.81;;;16.14;56.05
56514;BME280;62152;52.078;8.414;2023-01-27T12:57:15;101116.00;;;16.14;56.44
56514;BME280;62152;52.078;8.414;2023-01-27T13:01:23;101115.69;;;16.16;56.57
56514;BME280;62152;52.078;8.414;2023-01-27T13:05:34;101112.16;;;16.15;56.28
56514;BME280;62152;52.078;8.414;2023-01-27T13:09:44;101111.34;;;16.14;56.08
56514;BME280;62152;52.078;8.414;2023-01-27T13:13:49;101109.75;;;16.13;56.46
56514;BME280;62152;52.078;8.414;2023-01-27T13:17:52;101115.69;;;16.16;56.12
56514;BME280;62152;52.078;8.414;2023-01-27T13:21:56;101116.13;;;16.18;56.39
56514;BME280;62152;52.078;8.414;2023-01-27T13:26:09;101117.28;;;16.17;56.52
56514;BME280;62152;52.078;8.414;2023-01-27T13:30:24;101114.53;;;16.17;56.39
56514;BME280;62152;52.078;8.414;2023-01-27T13:34:37;101127.09;;;16.18;56.04
56514;BME280;62152;52.078;8.414;2023-01-27T13:38:53;101129.81;;;16.18;56.34
56514;BME280;62152;52.078;8.414;2023-01-27T13:43:09;101128.22;;;16.17;56.52
56514;BME280;62152;52.078;8.414;2023-01-27T13:47:23;101122.28;;;16.14;56.60
56514;BME280;62152;52.078;8.414;2023-01-27T13:51:29;101125.81;;;16.15;56.11
56514;BME280;62152;52.078;8.414;2023-01-27T13:55:48;101129.38;;;16.16;56.12
56514;BME280;62152;52.078;8.414;2023-01-27T14:00:09;101133.22;;;16.14;56.29
56514;BME280;62152;52.078;8.414;2023-01-27T14:04:35;101135.97;;;16.14;56.70
56514;BME280;62152;52.078;8.414;2023-01-27T14:09:01;101138.72;;;16.14;56.10
56514;BME280;62152;52.078;8.414;2023-01-27T14:13:28;101134.38;;;16.13;56.48
56514;BME280;62152;52.078;8.414;2023-01-27T14:17:43;101133.22;;;16.14;56.34
56514;BME280;62152;52.078;8.414;2023-01-27T14:21:54;101131.31;;;16.15;56.14
56514;BME280;62152;52.078;8.414;2023-01-27T14:26:16;101139.84;;;16.13;56.42
56514;BME280;62152;52.078;8.414;2023-01-27T14:30:40;101147.25;;;16.13;56.55
56514;BME280;62152;52.078;8.414;2023-01-27T14:35:00;101148.38;;;16.12;56.65
56514;BME280;62152;52.078;8.414;2023-01-27T14:39:22;101158.22;;;16.13;56.40
56514;BME280;62152;52.078;8.414;2023-01-27T14:43:40;101145.63;;;16.12;56.27
56514;BME280;62152;52.078;8.414;2023-01-27T14:47:56;101149.50;;;16.11;56.50
56514;BME280;62152;52.078;8.414;2023-01-27T14:52:20;101154.16;;;16.10;56.23
56514;BME280;62152;52.078;8.414;2023-01-27T14:56:42;101154.97;;;16.11;56.66
56514;BME280;62152;52.078;8.414;2023-01-27T15:00:56;101170.59;;;16.10;56.49
56514;BME280;62152;52.078;8.414;2023-01-27T15:05:17;101165.13;;;16.10;56.34
56514;BME280;62152;52.078;8.414;2023-01-27T15:09:40;101176.06;;;16.10;56.25
56514;BME280;62152;52.078;8.414;2023-01-27T15:14:08;101175.31;;;16.31;56.11
56514;BME280;62152;52.078;8.414;2023-01-27T15:18:50;101181.06;;;16.67;54.93
56514;BME280;62152;52.078;8.414;2023-01-27T15:23:23;101186.00;;;16.83;54.45
56514;BME280;62152;52.078;8.414;2023-01-27T15:27:38;101193.44;;;16.82;54.27
56514;BME280;62152;52.078;8.414;2023-01-27T15:31:40;101191.00;;;16.81;54.19
56514;BME280;62152;52.078;8.414;2023-01-27T15:35:41;101208.13;;;16.78;54.54
56514;BME280;62152;52.078;8.414;2023-01-27T15:40:04;101213.94;;;16.76;54.77
56514;BME280;62152;52.078;8.414;2023-01-27T15:44:18;101221.91;;;16.90;55.59
56514;BME280;62152;52.078;8.414;2023-01-27T15:48:36;101221.84;;;16.99;56.94
56514;BME280;62152;52.078;8.414;2023-01-27T15:52:41;101225.03;;;17.01;57.76
56514;BME280;62152;52.078;8.414;2023-01-27T15:56:49;101221.16;;;17.02;57.99
56514;BME280;62152;52.078;8.414;2023-01-27T16:00:54;101229.25;;;16.98;58.40
56514;BME280;62152;52.078;8.414;2023-01-27T16:05:06;101222.50;;;16.95;59.01
56514;BME280;62152;52.078;8.414;2023-01-27T16:09:35;101230.72;;;16.95;58.67
56514;BME280;62152;52.078;8.414;2023-01-27T16:13:40;101232.78;;;16.99;58.91
56514;BME280;62152;52.078;8.414;2023-01-27T16:18:00;101233.94;;;16.98;59.37
56514;BME280;62152;52.078;8.414;2023-01-27T16:22:22;101230.72;;;16.95;59.40
56514;BME280;62152;52.078;8.414;2023-01-27T16:26:31;101225.91;;;16.92;59.94
56514;BME280;62152;52.078;8.414;2023-01-27T16:30:46;101230.59;;;16.92;59.37
56514;BME280;62152;52.078;8.414;2023-01-27T16:35:15;101229.31;;;16.89;59.39
56514;BME280;62152;52.078;8.414;2023-01-27T16:39:29;101237.19;;;16.91;59.25
56514;BME280;62152;52.078;8.414;2023-01-27T16:43:42;101245.09;;;16.92;58.61
56514;BME280;62152;52.078;8.414;2023-01-27T16:47:55;101244.91;;;16.98;59.68
56514;BME280;62152;52.078;8.414;2023-01-27T16:52:03;101249.44;;;16.93;59.72
56514;BME280;62152;52.078;8.414;2023-01-27T16:56:21;101243.63;;;16.95;60.33
56514;BME280;62152;52.078;8.414;2023-01-27T17:00:27;101244.75;;;16.94;60.90
56514;BME280;62152;52.078;8.414;2023-01-27T17:04:32;101242.00;;;16.94;61.10
56514;BME280;62152;52.078;8.414;2023-01-27T17:08:42;101256.19;;;16.96;60.93
56514;BME280;62152;52.078;8.414;2023-01-27T17:12:49;101259.88;;;17.00;61.59
56514;BME280;62152;52.078;8.414;2023-01-27T17:16:50;101261.47;;;17.01;61.95
56514;BME280;62152;52.078;8.414;2023-01-27T17:20:53;101261.69;;;16.96;62.34
56514;BME280;62152;52.078;8.414;2023-01-27T17:25:02;101263.81;;;16.90;61.70
56514;BME280;62152;52.078;8.414;2023-01-27T17:29:04;101260.72;;;16.92;61.33
56514;BME280;62152;52.078;8.414;2023-01-27T17:33:12;101264.59;;;16.91;61.00
56514;BME280;62152;52.078;8.414;2023-01-27T17:37:20;101267.81;;;16.93;61.22
56514;BME280;62152;52.078;8.414;2023-01-27T17:41:25;101268.47;;;16.90;60.76
56514;BME280;62152;52.078;8.414;2023-01-27T17:45:32;101274.88;;;16.94;60.85
56514;BME280;62152;52.078;8.414;2023-01-27T17:49:33;101279.91;;;16.92;61.07
56514;BME280;62152;52.078;8.414;2023-01-27T17:53:39;101281.84;;;16.91;60.46
56514;BME280;62152;52.078;8.414;2023-01-27T17:57:43;101286.59;;;16.74;61.18
56514;BME280;62152;52.078;8.414;2023-01-27T18:01:49;101289.72;;;16.63;60.75
56514;BME280;62152;52.078;8.414;2023-01-27T18:05:53;101296.97;;;16.59;60.58
56514;BME280;62152;52.078;8.414;2023-01-27T18:09:56;101297.63;;;16.56;60.77
56514;BME280;62152;52.078;8.414;2023-01-27T18:13:59;101313.59;;;16.54;60.79
56514;BME280;62152;52.078;8.414;2023-01-27T18:18:19;101309.22;;;16.53;60.31
56514;BME280;62152;52.078;8.414;2023-01-27T18:22:23;101306.03;;;16.51;59.99
56514;BME280;62152;52.078;8.414;2023-01-27T18:26:29;101320.06;;;16.50;60.03
56514;BME280;62152;52.078;8.414;2023-01-27T18:30:32;101315.38;;;16.50;60.15
56514;BME280;62152;52.078;8.414;2023-01-27T18:34:44;101325.06;;;16.48;60.07
56514;BME280;62152;52.078;8.414;2023-01-27T18:38:46;101327.00;;;16.47;59.93
56514;BME280;62152;52.078;8.414;2023-01-27T18:42:52;101315.34;;;16.59;60.54
56514;BME280;62152;52.078;8.414;2023-01-27T18:47:04;101326.16;;;16.55;60.42
56514;BME280;62152;52.078;8.414;2023-01-27T18:51:13;101320.84;;;16.50;60.19
56514;BME280;62152;52.078;8.414;2023-01-27T18:55:17;101328.59;;;16.48;59.92
56514;BME280;62152;52.078;8.414;2023-01-27T18:59:21;101330.84;;;16.46;59.58
56514;BME280;62152;52.078;8.414;2023-01-27T19:03:25;101328.91;;;16.47;59.98
56514;BME280;62152;52.078;8.414;2023-01-27T19:07:27;101333.13;;;16.44;59.89
56514;BME280;62152;52.078;8.414;2023-01-27T19:11:28;101336.97;;;16.43;59.57
56514;BME280;62152;52.078;8.414;2023-01-27T19:15:33;101334.72;;;16.45;59.55
56514;BME280;62152;52.078;8.414;2023-01-27T19:19:36;101334.25;;;16.43;59.38
56514;BME280;62152;52.078;8.414;2023-01-27T19:23:37;101338.47;;;16.40;59.42
56514;BME280;62152;52.078;8.414;2023-01-27T19:27:41;101332.97;;;16.40;59.45
56514;BME280;62152;52.078;8.414;2023-01-27T19:31:45;101338.13;;;16.42;59.37
56514;BME280;62152;52.078;8.414;2023-01-27T19:35:49;101336.81;;;16.39;59.03
56514;BME280;62152;52.078;8.414;2023-01-27T19:39:52;101351.31;;;16.40;59.38
56514;BME280;62152;52.078;8.414;2023-01-27T19:43:53;101349.41;;;16.40;59.25
56514;BME280;62152;52.078;8.414;2023-01-27T19:47:56;101342.63;;;16.38;58.91
56514;BME280;62152;52.078;8.414;2023-01-27T19:51:56;101358.72;;;16.39;59.00
56514;BME280;62152;52.078;8.414;2023-01-27T19:55:57;101368.06;;;16.38;58.82
56514;BME280;62152;52.078;8.414;2023-01-27T19:59:58;101361.78;;;16.38;58.93
56514;BME280;62152;52.078;8.414;2023-01-27T20:04:00;101364.53;;;16.38;58.93
56514;BME280;62152;52.078;8.414;2023-01-27T20:08:01;101360.19;;;16.37;58.74
56514;BME280;62152;52.078;8.414;2023-01-27T20:12:02;101368.41;;;16.37;58.55
56514;BME280;62152;52.078;8.414;2023-01-27T20:16:03;101376.63;;;16.37;58.66
56514;BME280;62152;52.078;8.414;2023-01-27T20:20:08;101377.75;;;16.36;58.69
56514;BME280;62152;52.078;8.414;2023-01-27T20:24:13;101375.03;;;16.36;58.62
56514;BME280;62152;52.078;8.414;2023-01-27T20:28:14;101368.75;;;16.35;58.58
56514;BME280;62152;52.078;8.414;2023-01-27T20:32:15;101371.47;;;16.35;58.69
56514;BME280;62152;52.078;8.414;2023-01-27T20:36:20;101378.09;;;16.34;58.68
56514;BME280;62152;52.078;8.414;2023-01-27T20:40:24;101378.09;;;16.34;58.88
56514;BME280;62152;52.078;8.414;2023-01-27T20:44:26;101379.22;;;16.33;58.23
56514;BME280;62152;52.078;8.414;2023-01-27T20:48:27;101375.66;;;16.33;58.31
56514;BME280;62152;52.078;8.414;2023-01-27T20:52:29;101372.59;;;16.34;58.67
56514;BME280;62152;52.078;8.414;2023-01-27T20:56:30;101370.19;;;16.33;58.04
56514;BME280;62152;52.078;8.414;2023-01-27T21:00:31;101371.31;;;16.32;58.26
56514;BME280;62152;52.078;8.414;2023-01-27T21:04:32;101383.41;;;16.31;58.65
56514;BME280;62152;52.078;8.414;2023-01-27T21:08:34;101381.47;;;16.31;58.13
56514;BME280;62152;52.078;8.414;2023-01-27T21:12:35;101383.41;;;16.31;58.51
56514;BME280;62152;52.078;8.414;2023-01-27T21:16:36;101387.75;;;16.32;58.28
56514;BME280;62152;52.078;8.414;2023-01-27T21:20:37;101386.94;;;16.31;58.33
56514;BME280;62152;52.078;8.414;2023-01-27T21:24:39;101388.88;;;16.31;58.20
56514;BME280;62152;52.078;8.414;2023-01-27T21:28:41;101385.34;;;16.30;58.02